Time;durP1;ratioP1;P1;durP2;ratioP2;P2;SDS_P1;SDS_P2;PMS_P1;PMS_P2;Temp;Humidity;BMP_temperature;BMP_pressure;BME280_temperature;BME280_humidity;BME280_pressure;Samples;Min_cycle;Max_cycle;Signal;HPM_P1;HPM_P2
2021/03/09 00:02:21;;;;;;;24.25;13.75;;;4.20;99.90;;;;;;5061610;28;20043;-85
2021/03/09 00:04:47;;;;;;;24.20;12.88;;;4.20;99.90;;;;;;5057839;28;20500;-87
2021/03/09 00:07:12;;;;;;;27.52;15.30;;;4.20;99.90;;;;;;5066044;28;20055;-84
2021/03/09 00:09:38;;;;;;;30.75;16.55;;;4.20;99.90;;;;;;5059010;28;20028;-87
2021/03/09 00:12:04;;;;;;;33.60;16.63;;;4.20;99.90;;;;;;5064843;28;20025;-85
2021/03/09 00:14:29;;;;;;;28.75;16.92;;;4.10;99.90;;;;;;5058960;28;20025;-84
2021/03/09 00:16:55;;;;;;;32.40;16.20;;;4.20;99.90;;;;;;5064688;28;20016;-87
2021/03/09 00:19:20;;;;;;;34.95;17.65;;;4.20;99.90;;;;;;5075114;28;20472;-87
2021/03/09 00:21:46;;;;;;;31.88;18.17;;;4.10;99.90;;;;;;5066089;28;20028;-86
2021/03/09 00:24:11;;;;;;;33.78;17.65;;;4.10;99.90;;;;;;5065603;28;20120;-88
2021/03/09 00:26:37;;;;;;;32.70;17.25;;;4.20;99.90;;;;;;5055615;28;20021;-87
2021/03/09 00:29:02;;;;;;;39.17;18.85;;;4.20;99.90;;;;;;5065880;28;20091;-87
2021/03/09 00:31:29;;;;;;;37.00;19.00;;;4.20;99.90;;;;;;5065150;28;20061;-89
2021/03/09 00:33:55;;;;;;;36.15;20.20;;;4.10;99.90;;;;;;5064917;28;20048;-88
2021/03/09 00:36:20;;;;;;;37.58;18.80;;;4.20;99.90;;;;;;5062279;28;20052;-86
2021/03/09 00:38:46;;;;;;;38.95;20.00;;;4.20;99.90;;;;;;5069174;28;20550;-90
2021/03/09 00:41:11;;;;;;;37.80;19.30;;;4.20;99.90;;;;;;5066939;28;20021;-86
2021/03/09 00:43:37;;;;;;;45.85;22.13;;;4.20;99.90;;;;;;5067386;28;20123;-89
2021/03/09 00:46:02;;;;;;;40.25;21.77;;;4.20;99.90;;;;;;5069372;28;20058;-87
2021/03/09 00:48:38;;;;;;;41.75;21.60;;;4.20;99.90;;;;;;5056797;28;20120;-87
2021/03/09 00:51:04;;;;;;;42.38;22.55;;;4.20;99.90;;;;;;5070034;28;20028;-86
2021/03/09 00:53:30;;;;;;;48.33;23.23;;;4.10;99.90;;;;;;5061949;28;20037;-87
2021/03/09 00:55:55;;;;;;;41.72;22.92;;;4.10;99.90;;;;;;5064565;28;20021;-89
2021/03/09 00:58:21;;;;;;;43.05;22.35;;;4.10;99.90;;;;;;5064611;28;20108;-85
2021/03/09 01:00:46;;;;;;;42.15;23.70;;;4.10;99.90;;;;;;5060933;28;20020;-84
2021/03/09 01:03:12;;;;;;;45.42;22.27;;;4.10;99.90;;;;;;5058479;28;20462;-84
2021/03/09 01:05:37;;;;;;;45.55;23.85;;;4.10;99.90;;;;;;5051193;28;20051;-85
2021/03/09 01:08:03;;;;;;;49.63;24.95;;;4.10;99.90;;;;;;5056892;28;20025;-85
2021/03/09 01:10:29;;;;;;;46.80;25.27;;;4.10;99.90;;;;;;5059101;28;20016;-86
2021/03/09 01:12:54;;;;;;;45.28;24.48;;;4.10;99.90;;;;;;5062549;28;20021;-86
2021/03/09 01:15:20;;;;;;;51.55;26.13;;;4.10;99.90;;;;;;5066283;28;20100;-84
2021/03/09 01:17:45;;;;;;;48.00;24.02;;;4.10;99.90;;;;;;5057474;28;20013;-85
2021/03/09 01:20:12;;;;;;;49.83;24.90;;;4.00;99.90;;;;;;5065366;28;20016;-86
2021/03/09 01:22:37;;;;;;;50.45;25.00;;;4.10;99.90;;;;;;5065479;28;20103;-86
2021/03/09 01:25:04;;;;;;;47.53;24.05;;;4.00;99.90;;;;;;5059188;28;20048;-85
2021/03/09 01:27:30;;;;;;;49.20;24.40;;;4.10;99.90;;;;;;5064272;28;20025;-84
2021/03/09 01:29:55;;;;;;;45.17;25.02;;;4.10;99.90;;;;;;5059091;28;20082;-85
2021/03/09 01:32:21;;;;;;;50.33;26.60;;;4.00;99.90;;;;;;5057660;28;20028;-84
2021/03/09 01:34:47;;;;;;;51.42;25.80;;;4.10;99.90;;;;;;5055194;28;20480;-83
2021/03/09 01:37:13;;;;;;;46.92;25.30;;;4.00;99.90;;;;;;5052321;28;20074;-83
2021/03/09 01:39:39;;;;;;;50.92;25.63;;;4.00;99.90;;;;;;5055217;28;20021;-85
2021/03/09 01:42:05;;;;;;;60.42;28.83;;;4.00;99.90;;;;;;5055267;28;20071;-86
2021/03/09 01:44:30;;;;;;;57.72;27.27;;;4.00;99.90;;;;;;5062860;28;20048;-83
2021/03/09 01:47:01;;;;;;;53.08;26.80;;;4.00;99.90;;;;;;5061119;28;21248;-85
2021/03/09 01:49:36;;;;;;;60.78;28.40;;;4.00;99.90;;;;;;5056841;28;20029;-85
2021/03/09 01:52:04;;;;;;;60.00;29.27;;;4.00;99.90;;;;;;5053412;28;20094;-85
2021/03/09 01:54:29;;;;;;;62.20;32.25;;;4.00;99.90;;;;;;5060464;28;20017;-86
2021/03/09 01:56:55;;;;;;;65.75;32.15;;;4.00;99.90;;;;;;5066081;28;20025;-84
2021/03/09 01:59:22;;;;;;;56.03;29.40;;;4.00;99.90;;;;;;5055607;28;20017;-84
2021/03/09 02:01:48;;;;;;;58.45;30.58;;;4.00;99.90;;;;;;5060244;28;20059;-86
2021/03/09 02:04:14;;;;;;;64.78;30.83;;;4.00;99.90;;;;;;5061180;28;20128;-85
2021/03/09 02:06:40;;;;;;;65.97;33.22;;;4.00;99.90;;;;;;5064140;28;20052;-85
2021/03/09 02:09:06;;;;;;;61.45;31.30;;;4.00;99.90;;;;;;5054186;28;20021;-85
2021/03/09 02:11:48;;;;;;;71.15;33.75;;;4.00;99.90;;;;;;5060992;28;20341;-85
2021/03/09 02:14:25;;;;;;;61.42;32.80;;;4.00;99.90;;;;;;5063686;28;20029;-86
2021/03/09 02:17:29;;;;;;;60.67;31.52;;;4.00;99.90;;;;;;5085451;28;20429;-86
2021/03/09 02:20:26;;;;;;;67.07;35.33;;;4.00;99.90;;;;;;5060246;28;20469;-85
2021/03/09 02:23:29;;;;;;;67.10;33.65;;;4.00;99.90;;;;;;5068900;28;20025;-86
2021/03/09 02:26:26;;;;;;;65.07;35.13;;;4.00;99.90;;;;;;5059588;28;20017;-84
2021/03/09 02:29:16;;;;;;;69.97;34.97;;;4.00;99.90;;;;;;5060946;28;20019;-85
2021/03/09 02:31:47;;;;;;;68.00;36.58;;;4.00;99.90;;;;;;5076077;28;20047;-85
2021/03/09 02:34:17;;;;;;;72.40;35.78;;;4.00;99.90;;;;;;5069131;28;20022;-85
2021/03/09 02:36:43;;;;;;;72.03;36.72;;;4.00;99.90;;;;;;5060926;28;20025;-85
2021/03/09 02:39:12;;;;;;;73.47;37.53;;;4.00;99.90;;;;;;5059440;28;20027;-86
2021/03/09 02:41:47;;;;;;;77.10;38.50;;;4.00;99.90;;;;;;5070688;28;20048;-85
2021/03/09 02:44:21;;;;;;;77.53;41.13;;;4.00;99.90;;;;;;5060057;28;20025;-85
2021/03/09 02:46:49;;;;;;;79.43;39.40;;;4.00;99.90;;;;;;5054507;28;20112;-86
2021/03/09 02:49:15;;;;;;;79.13;40.35;;;4.00;99.90;;;;;;5062147;28;20073;-87
2021/03/09 02:51:42;;;;;;;78.00;39.97;;;4.00;99.90;;;;;;5070304;28;20107;-85
2021/03/09 02:54:10;;;;;;;81.70;42.67;;;3.90;99.90;;;;;;5063512;28;20044;-85
2021/03/09 02:56:38;;;;;;;86.50;43.60;;;4.00;99.90;;;;;;5060750;28;20107;-86
2021/03/09 02:59:08;;;;;;;85.78;42.83;;;3.90;99.90;;;;;;5059594;28;20016;-86
2021/03/09 03:01:36;;;;;;;96.50;49.03;;;3.90;99.90;;;;;;5067196;28;20047;-87
2021/03/09 03:04:04;;;;;;;82.82;43.40;;;3.90;99.90;;;;;;5061503;28;20032;-85
2021/03/09 03:06:32;;;;;;;89.60;45.28;;;3.90;99.90;;;;;;5067035;28;20087;-87
2021/03/09 03:09:00;;;;;;;97.20;47.88;;;4.00;99.90;;;;;;5059929;28;20028;-84
2021/03/09 03:11:26;;;;;;;96.20;47.97;;;4.00;99.90;;;;;;5057746;28;20032;-85
2021/03/09 03:13:53;;;;;;;104.63;50.05;;;3.90;99.90;;;;;;5059323;28;20077;-85
2021/03/09 03:16:20;;;;;;;102.82;49.47;;;3.90;99.90;;;;;;5054596;28;20530;-84
2021/03/09 03:18:48;;;;;;;107.97;53.08;;;4.00;99.90;;;;;;5056099;28;20025;-84
2021/03/09 03:21:16;;;;;;;100.68;50.47;;;3.90;99.90;;;;;;5056552;28;20021;-85
2021/03/09 03:23:43;;;;;;;109.22;53.85;;;3.90;99.90;;;;;;5062035;28;20112;-85
2021/03/09 03:26:10;;;;;;;99.90;49.83;;;3.90;99.90;;;;;;5055616;28;20025;-85
2021/03/09 03:28:44;;;;;;;113.90;57.17;;;3.90;99.90;;;;;;5060138;28;20027;-87
2021/03/09 03:31:10;;;;;;;113.25;55.03;;;4.00;99.90;;;;;;5067525;28;20495;-85
2021/03/09 03:33:35;;;;;;;105.43;52.83;;;3.90;99.90;;;;;;5057960;28;20017;-85
2021/03/09 03:36:05;;;;;;;101.65;52.08;;;3.90;99.90;;;;;;5060617;28;20021;-85
2021/03/09 03:38:36;;;;;;;108.18;54.58;;;4.00;99.90;;;;;;5058144;28;20435;-85
2021/03/09 03:41:03;;;;;;;108.07;55.85;;;3.90;99.90;;;;;;5065330;28;20476;-85
2021/03/09 03:43:30;;;;;;;111.15;55.25;;;3.90;99.90;;;;;;5056752;28;20036;-85
2021/03/09 03:45:55;;;;;;;106.13;53.47;;;3.90;99.90;;;;;;5055921;28;20109;-88
2021/03/09 03:48:22;;;;;;;118.72;55.60;;;3.90;99.90;;;;;;5057898;28;20049;-84
2021/03/09 03:50:49;;;;;;;103.50;52.20;;;4.00;99.90;;;;;;5060968;28;20024;-85
2021/03/09 03:53:50;;;;;;;122.75;58.42;;;3.90;99.90;;;;;;5062238;28;20434;-84
2021/03/09 03:56:39;;;;;;;112.78;55.33;;;4.00;99.90;;;;;;5057146;28;20025;-85
2021/03/09 03:59:23;;;;;;;114.80;56.23;;;4.00;99.90;;;;;;5044531;28;20029;-85
2021/03/09 04:01:51;;;;;;;111.30;53.03;;;3.90;99.90;;;;;;5057800;28;20017;-85
2021/03/09 04:04:18;;;;;;;107.85;52.40;;;3.90;99.90;;;;;;5056869;28;20159;-84
2021/03/09 04:06:49;;;;;;;128.05;59.30;;;4.00;99.90;;;;;;5066954;28;20028;-85
2021/03/09 04:09:16;;;;;;;122.05;57.55;;;4.00;99.90;;;;;;5059539;28;20056;-85
2021/03/09 04:11:42;;;;;;;110.22;53.85;;;4.00;99.90;;;;;;5060400;28;20017;-84
2021/03/09 04:14:10;;;;;;;111.90;53.47;;;4.00;99.90;;;;;;5057227;28;20116;-87
2021/03/09 04:16:36;;;;;;;109.82;52.15;;;4.00;99.90;;;;;;5054797;28;20032;-86
2021/03/09 04:19:04;;;;;;;106.03;52.35;;;4.00;99.90;;;;;;5054197;28;20017;-86
2021/03/09 04:21:31;;;;;;;102.72;50.67;;;4.00;99.90;;;;;;5060915;28;20544;-87
2021/03/09 04:23:58;;;;;;;99.63;48.50;;;4.00;99.90;;;;;;5055986;28;20091;-87
2021/03/09 04:26:25;;;;;;;94.57;48.67;;;4.00;99.90;;;;;;5055732;28;20076;-87
2021/03/09 04:28:52;;;;;;;103.63;49.83;;;4.00;99.90;;;;;;5059351;28;20119;-86
2021/03/09 04:31:18;;;;;;;104.10;49.78;;;4.00;99.90;;;;;;5061791;28;20029;-84
2021/03/09 04:33:46;;;;;;;112.13;51.22;;;4.00;99.90;;;;;;5058904;28;20017;-85
2021/03/09 04:36:12;;;;;;;101.35;47.95;;;4.00;99.90;;;;;;5055510;28;20055;-86
2021/03/09 04:38:38;;;;;;;100.03;50.50;;;4.00;99.90;;;;;;5068611;28;20021;-86
2021/03/09 04:41:04;;;;;;;104.07;49.58;;;4.00;99.90;;;;;;5063316;28;20095;-85
2021/03/09 04:43:30;;;;;;;104.70;49.45;;;4.00;99.90;;;;;;5057117;28;20040;-86
2021/03/09 04:45:57;;;;;;;100.82;46.80;;;4.00;99.90;;;;;;5060331;28;20383;-86
2021/03/09 04:48:24;;;;;;;99.70;47.97;;;4.00;99.90;;;;;;5057365;28;20132;-86
2021/03/09 04:50:51;;;;;;;98.65;48.88;;;4.00;99.90;;;;;;5059409;28;20025;-85
2021/03/09 04:53:17;;;;;;;94.05;47.55;;;4.00;99.90;;;;;;5065047;28;20025;-86
2021/03/09 04:55:43;;;;;;;104.10;48.72;;;4.00;99.90;;;;;;5058521;28;20064;-86
2021/03/09 04:58:08;;;;;;;97.07;47.67;;;4.00;99.90;;;;;;5059961;28;20041;-87
2021/03/09 05:00:34;;;;;;;98.43;47.95;;;4.00;99.90;;;;;;5057087;28;20031;-87
2021/03/09 05:03:00;;;;;;;107.72;50.03;;;4.00;99.90;;;;;;5059433;28;20472;-85
2021/03/09 05:05:26;;;;;;;110.53;52.83;;;4.00;99.90;;;;;;5062166;28;20025;-85
2021/03/09 05:07:52;;;;;;;112.93;51.60;;;4.00;99.90;;;;;;5059560;28;20021;-86
2021/03/09 05:10:19;;;;;;;113.55;52.30;;;4.00;99.90;;;;;;5060959;28;20074;-87
2021/03/09 05:12:47;;;;;;;106.93;49.47;;;4.00;99.90;;;;;;5059634;28;20455;-86
2021/03/09 05:15:13;;;;;;;128.38;58.05;;;4.00;99.90;;;;;;5055521;28;20585;-85
2021/03/09 05:17:40;;;;;;;114.30;55.92;;;4.00;99.90;;;;;;5065522;28;20016;-86
2021/03/09 05:20:08;;;;;;;133.23;55.58;;;4.00;99.90;;;;;;5058273;28;20029;-86
2021/03/09 05:22:34;;;;;;;107.13;51.28;;;4.00;99.90;;;;;;5041534;28;20122;-86
2021/03/09 05:24:59;;;;;;;107.20;50.58;;;4.00;99.90;;;;;;5055783;28;20057;-86
2021/03/09 05:27:25;;;;;;;134.82;57.33;;;4.00;99.90;;;;;;5066985;28;20110;-86
2021/03/09 05:29:50;;;;;;;118.80;54.72;;;4.00;99.90;;;;;;5088175;28;20468;-86
2021/03/09 05:32:16;;;;;;;117.90;55.30;;;4.00;99.90;;;;;;5056794;28;20139;-86
2021/03/09 05:34:41;;;;;;;126.60;57.47;;;4.10;99.90;;;;;;5055509;28;20024;-86
2021/03/09 05:37:09;;;;;;;132.05;60.45;;;4.10;99.90;;;;;;5055306;28;20103;-85
2021/03/09 05:39:36;;;;;;;120.90;54.33;;;4.10;99.90;;;;;;5059098;28;20392;-85
2021/03/09 05:42:02;;;;;;;119.95;56.92;;;4.10;99.90;;;;;;5054935;28;20408;-85
2021/03/09 05:44:28;;;;;;;111.22;51.92;;;4.10;99.90;;;;;;5056920;28;20016;-85
2021/03/09 05:46:54;;;;;;;100.55;50.33;;;4.10;99.90;;;;;;5060572;28;20112;-85
2021/03/09 05:49:19;;;;;;;106.47;53.17;;;4.10;99.90;;;;;;5059583;28;20036;-85
2021/03/09 05:51:45;;;;;;;103.50;50.67;;;4.10;99.90;;;;;;5056524;28;20029;-84
2021/03/09 05:54:11;;;;;;;101.43;49.45;;;4.10;99.90;;;;;;5091906;28;20472;-85
2021/03/09 05:56:36;;;;;;;109.57;52.35;;;4.10;99.90;;;;;;5061843;28;20074;-85
2021/03/09 05:59:02;;;;;;;120.35;56.58;;;4.10;99.90;;;;;;5057816;28;20021;-86
2021/03/09 06:01:27;;;;;;;114.07;55.25;;;4.10;99.90;;;;;;5063705;28;20460;-85
2021/03/09 06:03:53;;;;;;;107.47;51.67;;;4.10;99.90;;;;;;5056093;28;20051;-85
2021/03/09 06:06:18;;;;;;;116.18;53.92;;;4.20;99.90;;;;;;5061873;28;20021;-85
2021/03/09 06:08:44;;;;;;;110.82;53.47;;;4.20;99.90;;;;;;5056322;28;20127;-85
2021/03/09 06:11:18;;;;;;;109.60;53.65;;;4.20;99.90;;;;;;5057626;28;20027;-85
2021/03/09 06:13:45;;;;;;;108.65;53.75;;;4.20;99.90;;;;;;5057516;28;20162;-85
2021/03/09 06:16:11;;;;;;;107.10;52.38;;;4.20;99.90;;;;;;5056552;28;20017;-85
2021/03/09 06:18:37;;;;;;;104.88;53.05;;;4.20;99.90;;;;;;5058730;28;20016;-84
2021/03/09 06:21:13;;;;;;;110.38;56.22;;;4.20;99.90;;;;;;5055671;28;20025;-84
2021/03/09 06:23:41;;;;;;;129.38;61.80;;;4.20;99.90;;;;;;5061410;28;20066;-84
2021/03/09 06:26:38;;;;;;;121.25;57.95;;;4.20;99.90;;;;;;5054645;28;20036;-84
2021/03/09 06:29:14;;;;;;;120.70;59.58;;;4.30;99.90;;;;;;5057775;28;20017;-84
2021/03/09 06:31:59;;;;;;;126.40;58.78;;;4.20;99.90;;;;;;5057980;28;20028;-84
2021/03/09 06:34:27;;;;;;;114.40;55.55;;;4.20;99.90;;;;;;5062408;28;20500;-85
2021/03/09 06:37:14;;;;;;;129.52;60.58;;;4.20;99.90;;;;;;5073319;28;20020;-84
2021/03/09 06:39:47;;;;;;;149.45;67.25;;;4.30;99.90;;;;;;5073598;28;20021;-84
2021/03/09 06:42:14;;;;;;;146.85;65.97;;;4.30;99.90;;;;;;5071755;28;20051;-85
2021/03/09 06:44:39;;;;;;;151.77;69.82;;;4.30;99.90;;;;;;5072700;28;20060;-85
2021/03/09 06:47:06;;;;;;;151.48;72.15;;;4.40;99.90;;;;;;5054771;28;20448;-85
2021/03/09 06:49:50;;;;;;;164.52;76.53;;;4.40;99.90;;;;;;5052974;28;20032;-84
2021/03/09 06:52:16;;;;;;;160.90;76.95;;;4.40;99.90;;;;;;5053852;28;20527;-85
2021/03/09 06:54:47;;;;;;;157.70;76.43;;;4.40;99.90;;;;;;5070150;28;20033;-85
2021/03/09 06:57:14;;;;;;;182.75;83.68;;;4.50;99.90;;;;;;5072599;28;20066;-85
2021/03/09 06:59:45;;;;;;;192.38;86.28;;;4.50;99.90;;;;;;5083822;28;20021;-86
2021/03/09 07:02:14;;;;;;;179.40;84.78;;;4.50;99.90;;;;;;5096529;28;20360;-85
2021/03/09 07:04:45;;;;;;;214.85;95.65;;;4.60;99.90;;;;;;5094891;28;20044;-86
2021/03/09 07:07:12;;;;;;;227.18;99.40;;;4.50;99.90;;;;;;5093332;28;20487;-86
2021/03/09 07:09:55;;;;;;;199.10;96.85;;;4.50;99.90;;;;;;5093561;28;20028;-85
2021/03/09 07:12:21;;;;;;;212.57;98.80;;;4.60;99.90;;;;;;5090289;28;20025;-85
2021/03/09 07:14:49;;;;;;;249.98;103.50;;;4.60;99.90;;;;;;5093559;28;20032;-85
2021/03/09 07:17:21;;;;;;;191.43;92.00;;;4.60;99.90;;;;;;5094928;28;20551;-86
2021/03/09 07:19:47;;;;;;;188.77;92.63;;;4.70;99.90;;;;;;5093451;28;20032;-86
2021/03/09 07:22:14;;;;;;;183.90;84.72;;;4.70;99.90;;;;;;5087961;28;20020;-86
2021/03/09 07:24:46;;;;;;;173.27;84.03;;;4.70;99.90;;;;;;5105105;28;20024;-86
2021/03/09 07:27:18;;;;;;;182.38;83.85;;;4.80;99.90;;;;;;5093898;28;20028;-87
2021/03/09 07:29:58;;;;;;;174.60;82.25;;;4.80;99.90;;;;;;5095011;28;20020;-88
2021/03/09 07:32:27;;;;;;;155.30;77.88;;;4.80;99.90;;;;;;5093977;28;20105;-86
2021/03/09 07:34:54;;;;;;;144.75;69.20;;;4.80;99.90;;;;;;5089685;28;20028;-87
2021/03/09 07:37:20;;;;;;;147.45;70.53;;;4.80;99.90;;;;;;5078391;28;20116;-86
2021/03/09 07:39:46;;;;;;;125.60;62.78;;;4.90;99.90;;;;;;5073275;28;20021;-87
2021/03/09 07:42:12;;;;;;;116.20;58.85;;;4.90;99.90;;;;;;5072898;28;20066;-86
2021/03/09 07:44:39;;;;;;;103.00;52.10;;;4.90;99.90;;;;;;5073226;28;20499;-88
2021/03/09 07:47:07;;;;;;;91.35;49.42;;;5.00;99.90;;;;;;5073225;28;20154;-87
2021/03/09 07:49:35;;;;;;;95.00;46.70;;;5.00;99.90;;;;;;5073319;28;20044;-86
2021/03/09 07:52:15;;;;;;;88.90;44.92;;;5.10;99.90;;;;;;5080976;28;20096;-86
2021/03/09 07:55:03;;;;;;;82.63;43.20;;;5.20;99.90;;;;;;5081323;28;20020;-86
2021/03/09 07:57:29;;;;;;;84.85;43.30;;;5.30;99.90;;;;;;5082978;28;20024;-87
2021/03/09 08:00:21;;;;;;;86.97;44.58;;;5.30;99.90;;;;;;5082391;28;20032;-86
2021/03/09 08:03:01;;;;;;;80.85;42.40;;;5.30;99.90;;;;;;5076121;28;20499;-85
2021/03/09 08:05:28;;;;;;;76.43;40.70;;;5.30;99.90;;;;;;5074337;28;20467;-87
2021/03/09 08:07:58;;;;;;;79.30;40.42;;;5.40;99.90;;;;;;5081726;28;20501;-86
2021/03/09 08:10:27;;;;;;;75.28;39.10;;;5.40;99.90;;;;;;5087299;28;20031;-86
2021/03/09 08:13:05;;;;;;;77.13;38.97;;;5.40;99.90;;;;;;5093955;28;20388;-86
2021/03/09 08:15:30;;;;;;;74.28;39.78;;;5.40;99.90;;;;;;5092523;28;20029;-87
2021/03/09 08:18:16;;;;;;;72.72;37.63;;;5.50;99.90;;;;;;5092468;28;20429;-87
2021/03/09 08:20:54;;;;;;;67.82;35.83;;;5.50;99.90;;;;;;5092672;28;20017;-86
2021/03/09 08:23:32;;;;;;;66.13;33.90;;;5.50;99.90;;;;;;5092750;28;20027;-87
2021/03/09 08:26:28;;;;;;;60.17;31.90;;;5.50;99.90;;;;;;5092716;28;20028;-87
2021/03/09 08:28:54;;;;;;;57.38;30.98;;;5.60;99.90;;;;;;5092912;28;20185;-88
2021/03/09 08:31:19;;;;;;;55.72;28.15;;;5.60;99.90;;;;;;5075499;28;20586;-88
2021/03/09 08:33:47;;;;;;;52.60;25.70;;;5.60;99.90;;;;;;5080730;28;20409;-89
2021/03/09 08:36:22;;;;;;;42.42;21.27;;;5.60;99.90;;;;;;5093012;28;20112;-89
2021/03/09 08:39:04;;;;;;;35.92;18.05;;;5.70;99.90;;;;;;5080977;28;20140;-89
2021/03/09 08:41:35;;;;;;;28.80;15.98;;;5.70;99.90;;;;;;5073960;28;20446;-88
2021/03/09 08:47:05;;;;;;;29.10;14.45;;;5.70;99.90;;;;;;5072893;28;20480;-89
2021/03/09 08:49:40;;;;;;;19.70;11.45;;;5.70;99.90;;;;;;5081891;28;20039;-89
2021/03/09 08:52:14;;;;;;;19.25;11.05;;;5.70;99.90;;;;;;5092244;28;20161;-90
2021/03/09 08:54:43;;;;;;;16.77;10.38;;;5.80;99.90;;;;;;5089681;28;20028;-90
2021/03/09 08:57:10;;;;;;;17.77;10.30;;;5.80;99.90;;;;;;5085181;28;20502;-88
2021/03/09 08:59:37;;;;;;;13.30;8.32;;;5.80;99.90;;;;;;5076837;28;20518;-88
2021/03/09 09:02:14;;;;;;;14.52;7.95;;;5.90;99.90;;;;;;5080855;28;20027;-89
2021/03/09 09:05:03;;;;;;;16.88;8.75;;;5.90;99.90;;;;;;5080873;28;20089;-89
2021/03/09 09:07:37;;;;;;;16.13;8.60;;;5.90;99.90;;;;;;5080618;28;20484;-86
2021/03/09 09:10:24;;;;;;;13.55;8.63;;;5.90;99.90;;;;;;5081365;28;20028;-90
2021/03/09 09:12:54;;;;;;;14.77;8.13;;;6.00;99.90;;;;;;5080350;28;20070;-88
2021/03/09 09:15:32;;;;;;;13.55;8.05;;;5.90;99.90;;;;;;5084825;28;20032;-90
2021/03/09 09:18:03;;;;;;;13.07;7.50;;;5.90;99.90;;;;;;5085759;28;20020;-89
2021/03/09 09:20:32;;;;;;;11.65;7.35;;;5.90;99.90;;;;;;5083614;28;20020;-90
2021/03/09 09:23:09;;;;;;;8.25;6.07;;;6.00;99.90;;;;;;5085709;28;20072;-89
2021/03/09 09:25:38;;;;;;;11.45;7.15;;;6.10;99.90;;;;;;5080329;28;20028;-90
2021/03/09 09:28:05;;;;;;;8.60;5.43;;;6.10;99.90;;;;;;5075829;28;20031;-90
2021/03/09 09:30:40;;;;;;;8.27;5.90;;;6.20;99.90;;;;;;5086864;28;20510;-89
2021/03/09 09:33:08;;;;;;;9.40;5.90;;;6.30;99.90;;;;;;5076029;28;20027;-88
2021/03/09 09:35:34;;;;;;;10.05;5.38;;;6.40;99.90;;;;;;5076474;28;20459;-85
2021/03/09 09:38:08;;;;;;;7.80;4.15;;;6.50;99.90;;;;;;5074603;28;20112;-85
2021/03/09 09:40:42;;;;;;;6.75;3.75;;;6.50;99.90;;;;;;5076279;28;20028;-84
2021/03/09 09:43:10;;;;;;;7.40;4.22;;;6.50;99.90;;;;;;5076721;28;20382;-86
2021/03/09 09:45:43;;;;;;;6.50;4.20;;;6.50;99.90;;;;;;5079759;28;20048;-85
2021/03/09 09:48:11;;;;;;;6.95;4.72;;;6.60;99.90;;;;;;5082916;28;20017;-88
2021/03/09 09:50:42;;;;;;;6.10;4.82;;;6.60;99.90;;;;;;5086074;28;20012;-88
2021/03/09 09:53:07;;;;;;;8.43;5.10;;;6.70;99.90;;;;;;5086779;28;20112;-87
2021/03/09 09:55:33;;;;;;;8.48;5.30;;;6.70;99.90;;;;;;5084081;28;20544;-88
2021/03/09 09:58:00;;;;;;;7.68;4.82;;;6.60;99.90;;;;;;5085833;28;20024;-89
2021/03/09 10:00:31;;;;;;;8.65;5.50;;;6.60;99.90;;;;;;5081457;28;20044;-88
2021/03/09 10:03:13;;;;;;;7.25;5.90;;;6.80;99.90;;;;;;5081596;28;20037;-88
2021/03/09 10:05:39;;;;;;;8.75;5.63;;;7.00;99.90;;;;;;5085500;28;20107;-89
2021/03/09 10:08:06;;;;;;;6.55;4.78;;;7.10;99.90;;;;;;5085476;28;20024;-85
2021/03/09 10:10:32;;;;;;;5.45;4.07;;;7.20;99.90;;;;;;5082906;28;20017;-84
2021/03/09 10:12:58;;;;;;;5.95;3.80;;;7.20;99.90;;;;;;5085143;28;20094;-85
2021/03/09 10:15:23;;;;;;;5.32;4.00;;;7.10;99.90;;;;;;5084370;28;20071;-85
2021/03/09 10:17:49;;;;;;;5.70;3.83;;;7.10;99.90;;;;;;5084787;28;20447;-86
2021/03/09 10:20:18;;;;;;;4.20;3.30;;;7.20;99.90;;;;;;5082440;28;20532;-86
2021/03/09 10:22:43;;;;;;;7.72;4.05;;;7.20;99.90;;;;;;5084093;28;20024;-89
2021/03/09 10:25:14;;;;;;;4.55;3.65;;;7.30;99.90;;;;;;5084616;28;20028;-89
2021/03/09 10:27:40;;;;;;;6.05;3.85;;;7.70;99.90;;;;;;5082154;28;20091;-88
2021/03/09 10:30:06;;;;;;;4.25;3.15;;;9.30;99.90;;;;;;5083995;28;20418;-87
2021/03/09 10:32:47;;;;;;;4.38;3.30;;;9.80;99.90;;;;;;5084754;28;20083;-84
2021/03/09 10:35:12;;;;;;;10.25;4.03;;;9.40;99.90;;;;;;5083527;28;20017;-84
2021/03/09 10:37:40;;;;;;;6.90;4.35;;;8.70;99.90;;;;;;5074214;28;20025;-85
2021/03/09 10:40:12;;;;;;;5.85;4.30;;;8.20;99.90;;;;;;5077976;28;20514;-88
2021/03/09 10:42:39;;;;;;;7.57;4.65;;;8.00;99.90;;;;;;5074208;28;20056;-83
2021/03/09 10:45:20;;;;;;;6.13;4.80;;;7.80;99.90;;;;;;5122591;27;20071;-84
2021/03/09 10:47:55;;;;;;;5.20;4.70;;;7.70;99.90;;;;;;5093735;28;20479;-86
2021/03/09 10:50:23;;;;;;;7.05;5.90;;;7.50;99.90;;;;;;5094574;28;20032;-84
2021/03/09 10:52:48;;;;;;;9.88;5.75;;;7.50;99.90;;;;;;5094265;28;20031;-88
2021/03/09 10:55:14;;;;;;;7.95;5.38;;;7.40;99.90;;;;;;5094343;28;20028;-88
2021/03/09 10:57:40;;;;;;;7.15;6.07;;;7.40;99.90;;;;;;5094196;28;20057;-87
2021/03/09 11:00:09;;;;;;;7.20;6.15;;;7.40;99.90;;;;;;5093976;28;20111;-86
2021/03/09 11:02:34;;;;;;;7.40;6.45;;;7.50;99.90;;;;;;5093653;28;20368;-84
2021/03/09 11:05:00;;;;;;;7.05;5.40;;;7.50;99.90;;;;;;5093849;28;20028;-84
2021/03/09 11:07:25;;;;;;;6.25;4.78;;;7.50;99.90;;;;;;5072692;28;20372;-85
2021/03/09 11:09:51;;;;;;;5.95;3.78;;;7.50;99.90;;;;;;5084125;28;20039;-84
2021/03/09 11:12:16;;;;;;;4.55;3.42;;;7.50;99.90;;;;;;5088346;28;20035;-84
2021/03/09 11:14:42;;;;;;;5.72;3.22;;;7.50;99.90;;;;;;5090060;28;20115;-86
2021/03/09 11:17:07;;;;;;;4.95;3.08;;;7.50;99.90;;;;;;5073302;28;20116;-87
2021/03/09 11:19:33;;;;;;;4.75;3.30;;;7.50;99.90;;;;;;5073344;28;20039;-84
2021/03/09 11:22:00;;;;;;;4.75;3.25;;;7.60;99.90;;;;;;5073239;28;20475;-87
2021/03/09 11:24:26;;;;;;;3.72;2.88;;;7.60;99.90;;;;;;5074360;28;20443;-86
2021/03/09 11:26:56;;;;;;;3.25;2.88;;;7.60;99.90;;;;;;5077536;28;20059;-87
2021/03/09 11:29:22;;;;;;;3.83;3.13;;;7.60;99.90;;;;;;5076893;28;20042;-83
2021/03/09 11:31:47;;;;;;;3.75;3.35;;;7.60;99.90;;;;;;5072872;28;20020;-85
2021/03/09 11:34:12;;;;;;;4.53;3.92;;;7.50;99.90;;;;;;5074355;28;20025;-84
2021/03/09 11:36:38;;;;;;;4.95;4.22;;;7.40;99.90;;;;;;5071733;28;20079;-86
2021/03/09 11:39:04;;;;;;;6.95;4.30;;;7.40;99.90;;;;;;5074274;28;20062;-87
2021/03/09 11:41:29;;;;;;;5.25;4.32;;;7.40;99.90;;;;;;5074426;28;20062;-86
2021/03/09 11:43:55;;;;;;;5.43;4.85;;;7.50;99.90;;;;;;5079739;28;20020;-86
2021/03/09 11:46:20;;;;;;;5.80;4.68;;;7.60;99.90;;;;;;5077703;28;20020;-85
2021/03/09 11:48:46;;;;;;;5.00;4.50;;;7.60;99.90;;;;;;5082864;28;20032;-87
2021/03/09 11:51:14;;;;;;;4.88;4.00;;;7.60;99.90;;;;;;5085345;28;20074;-87
2021/03/09 11:53:41;;;;;;;4.25;3.80;;;7.70;99.90;;;;;;5089547;28;20081;-87
2021/03/09 11:56:07;;;;;;;3.50;2.83;;;7.80;99.90;;;;;;5090915;28;20015;-87
2021/03/09 11:58:33;;;;;;;4.43;2.72;;;7.90;99.90;;;;;;5089101;28;20012;-85
2021/03/09 12:00:59;;;;;;;3.63;3.30;;;7.90;99.90;;;;;;5083451;28;20020;-84
2021/03/09 12:03:24;;;;;;;5.10;2.90;;;7.80;99.90;;;;;;5089302;28;20373;-87
2021/03/09 12:05:50;;;;;;;2.92;2.50;;;7.80;99.90;;;;;;5075002;28;20036;-84
2021/03/09 12:08:15;;;;;;;4.00;2.80;;;7.90;99.90;;;;;;5059539;28;20035;-84
2021/03/09 12:10:41;;;;;;;2.90;2.30;;;7.90;99.90;;;;;;5070048;28;20036;-84
2021/03/09 12:13:07;;;;;;;2.90;2.10;;;8.00;99.90;;;;;;5053400;28;20013;-84
2021/03/09 12:15:33;;;;;;;2.20;1.35;;;8.10;99.90;;;;;;5057390;28;20060;-84
2021/03/09 12:17:58;;;;;;;1.52;1.30;;;8.10;99.90;;;;;;5057229;28;20016;-85
2021/03/09 12:20:24;;;;;;;4.00;1.27;;;8.10;99.90;;;;;;5054171;28;20055;-87
2021/03/09 12:22:49;;;;;;;3.60;1.25;;;8.20;99.90;;;;;;5053720;28;20017;-85
2021/03/09 12:25:15;;;;;;;2.15;1.30;;;8.30;99.90;;;;;;5056403;28;20029;-83
2021/03/09 12:27:41;;;;;;;2.08;1.30;;;8.20;99.90;;;;;;5058185;28;20102;-85
2021/03/09 12:30:08;;;;;;;2.10;1.08;;;8.20;99.90;;;;;;5060463;28;20035;-87
2021/03/09 12:32:34;;;;;;;5.03;1.55;;;8.30;99.90;;;;;;5060542;28;20068;-84
2021/03/09 12:35:00;;;;;;;2.05;0.90;;;8.30;99.90;;;;;;5063459;28;20500;-86
2021/03/09 12:37:25;;;;;;;1.35;1.00;;;8.10;99.90;;;;;;5063271;28;20051;-84
2021/03/09 12:39:51;;;;;;;1.45;0.90;;;8.00;99.90;;;;;;5053063;28;20043;-84
2021/03/09 12:42:17;;;;;;;2.60;1.10;;;7.90;99.90;;;;;;5062456;28;20032;-83
2021/03/09 12:44:42;;;;;;;2.40;1.20;;;7.90;99.90;;;;;;5056998;28;20503;-86
2021/03/09 12:47:08;;;;;;;2.05;1.80;;;8.00;99.90;;;;;;5058177;28;20028;-85
2021/03/09 12:49:34;;;;;;;3.40;1.80;;;8.00;99.90;;;;;;5058969;28;20025;-85
2021/03/09 12:52:00;;;;;;;2.45;1.30;;;7.90;99.90;;;;;;5051643;28;20021;-83